sensor_id;sensor_type;location;lat;lon;timestamp;P1;durP1;ratioP1;P2;durP2;ratioP2
60243;SDS011;46106;51.468;5.814;2023-06-22T00:01:57;10.48;;;7.43;;
60243;SDS011;46106;51.468;5.814;2023-06-22T00:04:23;8.93;;;6.90;;
60243;SDS011;46106;51.468;5.814;2023-06-22T00:06:48;9.02;;;6.95;;
60243;SDS011;46106;51.468;5.814;2023-06-22T00:09:14;10.65;;;6.78;;
60243;SDS011;46106;51.468;5.814;2023-06-22T00:11:39;10.65;;;7.28;;
60243;SDS011;46106;51.468;5.814;2023-06-22T00:14:05;8.95;;;6.25;;
60243;SDS011;46106;51.468;5.814;2023-06-22T00:16:33;18.27;;;7.45;;
60243;SDS011;46106;51.468;5.814;2023-06-22T00:18:59;10.32;;;7.28;;
60243;SDS011;46106;51.468;5.814;2023-06-22T00:21:27;12.02;;;7.57;;
60243;SDS011;46106;51.468;5.814;2023-06-22T00:23:52;12.13;;;6.88;;
60243;SDS011;46106;51.468;5.814;2023-06-22T00:26:18;10.45;;;7.45;;
60243;SDS011;46106;51.468;5.814;2023-06-22T00:28:44;10.13;;;7.93;;
60243;SDS011;46106;51.468;5.814;2023-06-22T00:31:09;9.70;;;7.68;;
60243;SDS011;46106;51.468;5.814;2023-06-22T00:33:35;10.93;;;8.02;;
60243;SDS011;46106;51.468;5.814;2023-06-22T00:36:00;11.45;;;8.20;;
60243;SDS011;46106;51.468;5.814;2023-06-22T00:38:28;13.10;;;9.27;;
60243;SDS011;46106;51.468;5.814;2023-06-22T00:40:53;11.73;;;8.82;;
60243;SDS011;46106;51.468;5.814;2023-06-22T00:43:19;11.32;;;8.70;;
60243;SDS011;46106;51.468;5.814;2023-06-22T00:45:45;13.95;;;8.85;;
60243;SDS011;46106;51.468;5.814;2023-06-22T00:48:11;13.23;;;9.10;;
60243;SDS011;46106;51.468;5.814;2023-06-22T00:50:37;16.77;;;9.75;;
60243;SDS011;46106;51.468;5.814;2023-06-22T00:53:05;14.60;;;8.27;;
60243;SDS011;46106;51.468;5.814;2023-06-22T00:55:37;13.68;;;9.30;;
60243;SDS011;46106;51.468;5.814;2023-06-22T00:58:08;17.42;;;10.00;;
60243;SDS011;46106;51.468;5.814;2023-06-22T01:00:35;14.35;;;9.88;;
60243;SDS011;46106;51.468;5.814;2023-06-22T01:03:01;13.85;;;9.68;;
60243;SDS011;46106;51.468;5.814;2023-06-22T01:05:27;16.75;;;9.73;;
60243;SDS011;46106;51.468;5.814;2023-06-22T01:10:50;12.07;;;9.88;;
60243;SDS011;46106;51.468;5.814;2023-06-22T01:16:12;15.60;;;10.55;;
60243;SDS011;46106;51.468;5.814;2023-06-22T01:18:42;13.52;;;10.52;;
60243;SDS011;46106;51.468;5.814;2023-06-22T01:21:10;16.30;;;10.93;;
60243;SDS011;46106;51.468;5.814;2023-06-22T01:24:23;13.40;;;10.17;;
60243;SDS011;46106;51.468;5.814;2023-06-22T01:26:40;16.35;;;11.07;;
60243;SDS011;46106;51.468;5.814;2023-06-22T01:29:14;21.15;;;11.73;;
60243;SDS011;46106;51.468;5.814;2023-06-22T01:31:41;19.17;;;12.27;;
60243;SDS011;46106;51.468;5.814;2023-06-22T01:34:09;20.15;;;11.65;;
60243;SDS011;46106;51.468;5.814;2023-06-22T01:36:36;14.93;;;11.70;;
60243;SDS011;46106;51.468;5.814;2023-06-22T01:39:03;17.02;;;11.88;;
60243;SDS011;46106;51.468;5.814;2023-06-22T01:41:37;16.42;;;11.60;;
60243;SDS011;46106;51.468;5.814;2023-06-22T01:46:31;19.70;;;11.50;;
60243;SDS011;46106;51.468;5.814;2023-06-22T01:48:57;14.68;;;11.35;;
60243;SDS011;46106;51.468;5.814;2023-06-22T01:51:23;16.63;;;11.93;;
60243;SDS011;46106;51.468;5.814;2023-06-22T01:53:49;17.42;;;11.93;;
60243;SDS011;46106;51.468;5.814;2023-06-22T01:56:16;16.67;;;11.88;;
60243;SDS011;46106;51.468;5.814;2023-06-22T01:58:46;18.90;;;11.80;;
60243;SDS011;46106;51.468;5.814;2023-06-22T02:01:17;17.10;;;12.27;;
60243;SDS011;46106;51.468;5.814;2023-06-22T02:06:39;18.65;;;12.43;;
60243;SDS011;46106;51.468;5.814;2023-06-22T02:09:12;15.35;;;12.00;;
60243;SDS011;46106;51.468;5.814;2023-06-22T02:11:41;20.30;;;12.10;;
60243;SDS011;46106;51.468;5.814;2023-06-22T02:14:09;17.20;;;11.05;;
60243;SDS011;46106;51.468;5.814;2023-06-22T02:16:35;17.08;;;12.23;;
60243;SDS011;46106;51.468;5.814;2023-06-22T02:19:02;17.70;;;12.70;;
60243;SDS011;46106;51.468;5.814;2023-06-22T02:21:28;18.15;;;11.95;;
60243;SDS011;46106;51.468;5.814;2023-06-22T02:23:54;21.17;;;12.70;;
60243;SDS011;46106;51.468;5.814;2023-06-22T02:26:20;18.55;;;12.57;;
60243;SDS011;46106;51.468;5.814;2023-06-22T02:28:45;17.77;;;12.27;;
60243;SDS011;46106;51.468;5.814;2023-06-22T02:31:11;19.92;;;12.07;;
60243;SDS011;46106;51.468;5.814;2023-06-22T02:33:36;19.48;;;12.98;;
60243;SDS011;46106;51.468;5.814;2023-06-22T02:36:02;15.82;;;12.30;;
60243;SDS011;46106;51.468;5.814;2023-06-22T02:38:34;19.45;;;12.98;;
60243;SDS011;46106;51.468;5.814;2023-06-22T02:41:01;17.30;;;12.82;;
60243;SDS011;46106;51.468;5.814;2023-06-22T02:43:27;22.30;;;12.93;;
60243;SDS011;46106;51.468;5.814;2023-06-22T02:45:53;17.33;;;12.52;;
60243;SDS011;46106;51.468;5.814;2023-06-22T02:48:19;16.13;;;12.75;;
60243;SDS011;46106;51.468;5.814;2023-06-22T02:50:44;19.33;;;12.20;;
60243;SDS011;46106;51.468;5.814;2023-06-22T02:53:10;17.80;;;12.50;;
60243;SDS011;46106;51.468;5.814;2023-06-22T02:55:35;18.02;;;12.48;;
60243;SDS011;46106;51.468;5.814;2023-06-22T02:58:01;15.25;;;12.13;;
60243;SDS011;46106;51.468;5.814;2023-06-22T03:00:29;20.25;;;12.60;;
60243;SDS011;46106;51.468;5.814;2023-06-22T03:02:56;14.48;;;11.80;;
60243;SDS011;46106;51.468;5.814;2023-06-22T03:05:22;17.55;;;13.48;;
60243;SDS011;46106;51.468;5.814;2023-06-22T03:07:48;15.70;;;12.10;;
60243;SDS011;46106;51.468;5.814;2023-06-22T03:10:14;24.42;;;13.18;;
60243;SDS011;46106;51.468;5.814;2023-06-22T03:12:40;16.08;;;13.15;;
60243;SDS011;46106;51.468;5.814;2023-06-22T03:15:11;19.00;;;13.43;;
60243;SDS011;46106;51.468;5.814;2023-06-22T03:17:38;17.70;;;12.88;;
60243;SDS011;46106;51.468;5.814;2023-06-22T03:20:05;16.77;;;12.35;;
60243;SDS011;46106;51.468;5.814;2023-06-22T03:22:36;16.80;;;12.13;;
60243;SDS011;46106;51.468;5.814;2023-06-22T03:25:02;19.20;;;12.60;;
60243;SDS011;46106;51.468;5.814;2023-06-22T03:27:28;18.23;;;12.75;;
60243;SDS011;46106;51.468;5.814;2023-06-22T03:29:53;16.55;;;12.48;;
60243;SDS011;46106;51.468;5.814;2023-06-22T03:32:18;14.48;;;11.55;;
60243;SDS011;46106;51.468;5.814;2023-06-22T03:34:44;23.80;;;12.05;;
60243;SDS011;46106;51.468;5.814;2023-06-22T03:37:15;13.82;;;11.93;;
60243;SDS011;46106;51.468;5.814;2023-06-22T03:39:41;16.80;;;12.32;;
60243;SDS011;46106;51.468;5.814;2023-06-22T03:42:06;19.35;;;12.35;;
60243;SDS011;46106;51.468;5.814;2023-06-22T03:44:32;18.50;;;12.02;;
60243;SDS011;46106;51.468;5.814;2023-06-22T03:46:58;16.63;;;10.95;;
60243;SDS011;46106;51.468;5.814;2023-06-22T03:49:23;19.10;;;11.63;;
60243;SDS011;46106;51.468;5.814;2023-06-22T03:51:48;16.77;;;11.85;;
60243;SDS011;46106;51.468;5.814;2023-06-22T03:54:14;16.02;;;11.80;;
60243;SDS011;46106;51.468;5.814;2023-06-22T03:56:39;15.88;;;11.85;;
60243;SDS011;46106;51.468;5.814;2023-06-22T03:59:05;17.02;;;12.02;;
60243;SDS011;46106;51.468;5.814;2023-06-22T04:01:30;14.30;;;10.65;;
60243;SDS011;46106;51.468;5.814;2023-06-22T04:03:55;16.65;;;11.40;;
60243;SDS011;46106;51.468;5.814;2023-06-22T04:06:21;14.73;;;11.07;;
60243;SDS011;46106;51.468;5.814;2023-06-22T04:08:47;17.92;;;10.77;;
60243;SDS011;46106;51.468;5.814;2023-06-22T04:11:15;16.85;;;11.45;;
60243;SDS011;46106;51.468;5.814;2023-06-22T04:13:42;18.92;;;11.25;;
60243;SDS011;46106;51.468;5.814;2023-06-22T04:16:07;17.45;;;11.07;;
60243;SDS011;46106;51.468;5.814;2023-06-22T04:18:33;13.88;;;10.82;;
60243;SDS011;46106;51.468;5.814;2023-06-22T04:20:58;17.42;;;10.95;;
60243;SDS011;46106;51.468;5.814;2023-06-22T04:23:24;13.55;;;10.98;;
60243;SDS011;46106;51.468;5.814;2023-06-22T04:25:49;16.60;;;11.25;;
60243;SDS011;46106;51.468;5.814;2023-06-22T04:28:16;16.00;;;11.70;;
60243;SDS011;46106;51.468;5.814;2023-06-22T04:30:41;14.63;;;10.98;;
60243;SDS011;46106;51.468;5.814;2023-06-22T04:33:15;17.13;;;11.00;;
60243;SDS011;46106;51.468;5.814;2023-06-22T04:35:41;18.67;;;11.73;;
60243;SDS011;46106;51.468;5.814;2023-06-22T04:38:06;15.90;;;11.45;;
60243;SDS011;46106;51.468;5.814;2023-06-22T04:40:32;14.57;;;11.63;;
60243;SDS011;46106;51.468;5.814;2023-06-22T04:42:57;16.50;;;11.50;;
60243;SDS011;46106;51.468;5.814;2023-06-22T04:45:23;15.05;;;11.18;;
60243;SDS011;46106;51.468;5.814;2023-06-22T04:47:48;17.88;;;12.05;;
60243;SDS011;46106;51.468;5.814;2023-06-22T04:50:14;17.75;;;12.05;;
60243;SDS011;46106;51.468;5.814;2023-06-22T04:52:40;15.73;;;12.32;;
60243;SDS011;46106;51.468;5.814;2023-06-22T04:55:05;17.23;;;12.38;;
60243;SDS011;46106;51.468;5.814;2023-06-22T04:57:31;19.00;;;12.40;;
60243;SDS011;46106;51.468;5.814;2023-06-22T05:00:00;17.90;;;12.85;;
60243;SDS011;46106;51.468;5.814;2023-06-22T05:02:26;16.40;;;11.98;;
60243;SDS011;46106;51.468;5.814;2023-06-22T05:04:57;18.15;;;12.40;;
60243;SDS011;46106;51.468;5.814;2023-06-22T05:07:23;20.38;;;12.43;;
60243;SDS011;46106;51.468;5.814;2023-06-22T05:09:50;18.30;;;12.38;;
60243;SDS011;46106;51.468;5.814;2023-06-22T05:12:16;15.10;;;12.30;;
60243;SDS011;46106;51.468;5.814;2023-06-22T05:14:41;20.25;;;13.18;;
60243;SDS011;46106;51.468;5.814;2023-06-22T05:17:06;18.70;;;12.57;;
60243;SDS011;46106;51.468;5.814;2023-06-22T05:19:38;15.57;;;12.10;;
60243;SDS011;46106;51.468;5.814;2023-06-22T05:22:04;16.73;;;11.98;;
60243;SDS011;46106;51.468;5.814;2023-06-22T05:24:31;22.42;;;13.00;;
60243;SDS011;46106;51.468;5.814;2023-06-22T05:26:57;19.85;;;12.98;;
60243;SDS011;46106;51.468;5.814;2023-06-22T05:29:22;21.85;;;13.52;;
60243;SDS011;46106;51.468;5.814;2023-06-22T05:31:48;16.05;;;12.00;;
60243;SDS011;46106;51.468;5.814;2023-06-22T05:34:14;22.63;;;14.18;;
60243;SDS011;46106;51.468;5.814;2023-06-22T05:36:39;21.20;;;13.52;;
60243;SDS011;46106;51.468;5.814;2023-06-22T05:39:11;17.40;;;12.88;;
60243;SDS011;46106;51.468;5.814;2023-06-22T05:41:38;23.38;;;13.95;;
60243;SDS011;46106;51.468;5.814;2023-06-22T05:44:04;17.80;;;13.85;;
60243;SDS011;46106;51.468;5.814;2023-06-22T05:46:29;26.58;;;14.05;;
60243;SDS011;46106;51.468;5.814;2023-06-22T05:48:55;19.75;;;13.85;;
60243;SDS011;46106;51.468;5.814;2023-06-22T05:51:20;20.05;;;13.82;;
60243;SDS011;46106;51.468;5.814;2023-06-22T05:53:45;24.50;;;14.85;;
60243;SDS011;46106;51.468;5.814;2023-06-22T05:56:14;18.58;;;13.93;;
60243;SDS011;46106;51.468;5.814;2023-06-22T05:58:40;22.50;;;14.98;;
60243;SDS011;46106;51.468;5.814;2023-06-22T06:01:06;20.30;;;14.23;;
60243;SDS011;46106;51.468;5.814;2023-06-22T06:03:31;18.95;;;14.23;;
60243;SDS011;46106;51.468;5.814;2023-06-22T06:05:56;22.33;;;15.65;;
60243;SDS011;46106;51.468;5.814;2023-06-22T06:08:22;19.85;;;15.25;;
60243;SDS011;46106;51.468;5.814;2023-06-22T06:10:47;22.27;;;15.95;;
60243;SDS011;46106;51.468;5.814;2023-06-22T06:13:13;22.55;;;15.27;;
60243;SDS011;46106;51.468;5.814;2023-06-22T06:15:39;18.95;;;14.52;;
60243;SDS011;46106;51.468;5.814;2023-06-22T06:18:04;22.88;;;15.65;;
60243;SDS011;46106;51.468;5.814;2023-06-22T06:20:31;17.90;;;14.13;;
60243;SDS011;46106;51.468;5.814;2023-06-22T06:22:57;20.65;;;14.70;;
60243;SDS011;46106;51.468;5.814;2023-06-22T06:25:22;19.23;;;15.40;;
60243;SDS011;46106;51.468;5.814;2023-06-22T06:27:49;20.02;;;14.93;;
60243;SDS011;46106;51.468;5.814;2023-06-22T06:30:15;18.65;;;14.27;;
60243;SDS011;46106;51.468;5.814;2023-06-22T06:32:42;18.63;;;15.20;;
60243;SDS011;46106;51.468;5.814;2023-06-22T06:35:10;21.52;;;15.52;;
60243;SDS011;46106;51.468;5.814;2023-06-22T06:37:37;20.88;;;14.30;;
60243;SDS011;46106;51.468;5.814;2023-06-22T06:40:07;19.52;;;15.30;;
60243;SDS011;46106;51.468;5.814;2023-06-22T06:42:35;19.10;;;15.15;;
60243;SDS011;46106;51.468;5.814;2023-06-22T06:45:03;24.60;;;15.30;;
60243;SDS011;46106;51.468;5.814;2023-06-22T06:47:30;20.90;;;15.60;;
60243;SDS011;46106;51.468;5.814;2023-06-22T06:49:55;20.92;;;15.80;;
60243;SDS011;46106;51.468;5.814;2023-06-22T06:52:20;23.23;;;15.95;;
60243;SDS011;46106;51.468;5.814;2023-06-22T06:54:46;23.20;;;16.60;;
60243;SDS011;46106;51.468;5.814;2023-06-22T06:57:11;19.48;;;15.88;;
60243;SDS011;46106;51.468;5.814;2023-06-22T06:59:38;21.63;;;16.13;;
60243;SDS011;46106;51.468;5.814;2023-06-22T07:02:04;19.08;;;15.68;;
60243;SDS011;46106;51.468;5.814;2023-06-22T07:04:30;21.80;;;16.38;;
60243;SDS011;46106;51.468;5.814;2023-06-22T07:06:55;23.10;;;16.15;;
60243;SDS011;46106;51.468;5.814;2023-06-22T07:09:21;21.17;;;16.15;;
60243;SDS011;46106;51.468;5.814;2023-06-22T07:11:46;22.40;;;17.92;;
60243;SDS011;46106;51.468;5.814;2023-06-22T07:14:11;31.20;;;16.60;;
60243;SDS011;46106;51.468;5.814;2023-06-22T07:16:37;18.95;;;15.40;;
60243;SDS011;46106;51.468;5.814;2023-06-22T07:19:02;21.95;;;16.27;;
60243;SDS011;46106;51.468;5.814;2023-06-22T07:21:28;21.45;;;15.20;;
60243;SDS011;46106;51.468;5.814;2023-06-22T07:23:53;24.08;;;16.55;;
60243;SDS011;46106;51.468;5.814;2023-06-22T07:26:19;24.92;;;16.20;;
60243;SDS011;46106;51.468;5.814;2023-06-22T07:28:45;22.50;;;15.57;;
60243;SDS011;46106;51.468;5.814;2023-06-22T07:31:10;20.08;;;15.48;;
60243;SDS011;46106;51.468;5.814;2023-06-22T07:33:36;26.67;;;15.75;;
60243;SDS011;46106;51.468;5.814;2023-06-22T07:36:01;23.10;;;17.15;;
60243;SDS011;46106;51.468;5.814;2023-06-22T07:38:32;27.33;;;16.70;;
60243;SDS011;46106;51.468;5.814;2023-06-22T07:40:58;23.15;;;16.52;;
60243;SDS011;46106;51.468;5.814;2023-06-22T07:43:23;22.13;;;17.45;;
60243;SDS011;46106;51.468;5.814;2023-06-22T07:45:49;24.17;;;17.25;;
60243;SDS011;46106;51.468;5.814;2023-06-22T07:48:17;21.98;;;17.17;;
60243;SDS011;46106;51.468;5.814;2023-06-22T07:50:45;22.90;;;17.58;;
60243;SDS011;46106;51.468;5.814;2023-06-22T07:53:10;24.58;;;17.70;;
60243;SDS011;46106;51.468;5.814;2023-06-22T07:55:36;20.85;;;15.68;;
60243;SDS011;46106;51.468;5.814;2023-06-22T07:58:01;22.45;;;18.15;;
60243;SDS011;46106;51.468;5.814;2023-06-22T08:00:27;20.80;;;16.48;;
60243;SDS011;46106;51.468;5.814;2023-06-22T08:02:52;20.75;;;16.13;;
60243;SDS011;46106;51.468;5.814;2023-06-22T08:05:21;25.00;;;18.35;;
60243;SDS011;46106;51.468;5.814;2023-06-22T08:07:47;25.13;;;18.35;;
60243;SDS011;46106;51.468;5.814;2023-06-22T08:10:12;20.83;;;15.27;;
60243;SDS011;46106;51.468;5.814;2023-06-22T08:12:41;25.10;;;17.17;;
60243;SDS011;46106;51.468;5.814;2023-06-22T08:15:07;20.15;;;15.80;;
60243;SDS011;46106;51.468;5.814;2023-06-22T08:17:34;20.75;;;16.17;;
60243;SDS011;46106;51.468;5.814;2023-06-22T08:20:02;22.45;;;16.70;;
60243;SDS011;46106;51.468;5.814;2023-06-22T08:22:34;25.45;;;18.35;;
60243;SDS011;46106;51.468;5.814;2023-06-22T08:25:00;23.65;;;18.35;;
60243;SDS011;46106;51.468;5.814;2023-06-22T08:27:25;24.50;;;18.45;;
60243;SDS011;46106;51.468;5.814;2023-06-22T08:29:53;21.38;;;17.63;;
60243;SDS011;46106;51.468;5.814;2023-06-22T08:32:23;23.80;;;18.50;;
60243;SDS011;46106;51.468;5.814;2023-06-22T08:34:49;22.73;;;18.33;;
60243;SDS011;46106;51.468;5.814;2023-06-22T08:37:14;22.67;;;17.60;;
60243;SDS011;46106;51.468;5.814;2023-06-22T08:39:40;21.65;;;17.38;;
60243;SDS011;46106;51.468;5.814;2023-06-22T08:42:06;20.80;;;17.33;;
60243;SDS011;46106;51.468;5.814;2023-06-22T08:44:32;24.98;;;17.52;;
60243;SDS011;46106;51.468;5.814;2023-06-22T08:46:57;24.30;;;17.73;;
60243;SDS011;46106;51.468;5.814;2023-06-22T08:49:22;27.00;;;18.92;;
60243;SDS011;46106;51.468;5.814;2023-06-22T08:51:48;25.40;;;18.33;;
60243;SDS011;46106;51.468;5.814;2023-06-22T08:54:14;20.10;;;16.67;;
60243;SDS011;46106;51.468;5.814;2023-06-22T08:56:40;24.55;;;18.35;;
60243;SDS011;46106;51.468;5.814;2023-06-22T08:59:05;29.35;;;18.58;;
60243;SDS011;46106;51.468;5.814;2023-06-22T09:01:33;26.15;;;17.92;;
60243;SDS011;46106;51.468;5.814;2023-06-22T09:03:58;23.08;;;18.92;;
60243;SDS011;46106;51.468;5.814;2023-06-22T09:06:25;24.67;;;18.42;;
60243;SDS011;46106;51.468;5.814;2023-06-22T09:08:50;28.08;;;18.98;;
60243;SDS011;46106;51.468;5.814;2023-06-22T09:11:15;25.38;;;18.42;;
60243;SDS011;46106;51.468;5.814;2023-06-22T09:13:41;24.23;;;18.67;;
60243;SDS011;46106;51.468;5.814;2023-06-22T09:16:07;22.13;;;18.58;;
60243;SDS011;46106;51.468;5.814;2023-06-22T09:18:33;22.65;;;17.85;;
60243;SDS011;46106;51.468;5.814;2023-06-22T09:20:59;20.80;;;17.10;;
60243;SDS011;46106;51.468;5.814;2023-06-22T09:23:24;24.15;;;18.00;;
60243;SDS011;46106;51.468;5.814;2023-06-22T09:25:50;23.45;;;16.10;;
60243;SDS011;46106;51.468;5.814;2023-06-22T09:28:15;22.20;;;17.13;;
60243;SDS011;46106;51.468;5.814;2023-06-22T09:30:42;19.45;;;16.33;;
60243;SDS011;46106;51.468;5.814;2023-06-22T09:33:09;19.05;;;16.30;;
60243;SDS011;46106;51.468;5.814;2023-06-22T09:35:34;22.90;;;16.40;;
60243;SDS011;46106;51.468;5.814;2023-06-22T09:38:00;20.48;;;16.17;;
60243;SDS011;46106;51.468;5.814;2023-06-22T09:40:25;17.98;;;16.13;;
60243;SDS011;46106;51.468;5.814;2023-06-22T09:42:50;19.92;;;16.35;;
60243;SDS011;46106;51.468;5.814;2023-06-22T09:45:16;18.85;;;16.55;;
60243;SDS011;46106;51.468;5.814;2023-06-22T09:47:41;17.50;;;14.73;;
60243;SDS011;46106;51.468;5.814;2023-06-22T09:50:07;19.90;;;15.60;;
60243;SDS011;46106;51.468;5.814;2023-06-22T09:52:33;21.25;;;16.52;;
60243;SDS011;46106;51.468;5.814;2023-06-22T09:54:59;20.95;;;16.33;;
60243;SDS011;46106;51.468;5.814;2023-06-22T09:57:24;21.33;;;17.17;;
60243;SDS011;46106;51.468;5.814;2023-06-22T09:59:50;19.80;;;16.10;;
60243;SDS011;46106;51.468;5.814;2023-06-22T10:02:15;21.05;;;16.35;;
60243;SDS011;46106;51.468;5.814;2023-06-22T10:04:42;19.95;;;16.98;;
60243;SDS011;46106;51.468;5.814;2023-06-22T10:07:07;21.65;;;16.42;;
60243;SDS011;46106;51.468;5.814;2023-06-22T10:09:33;19.92;;;16.35;;
60243;SDS011;46106;51.468;5.814;2023-06-22T10:11:58;26.42;;;15.23;;
60243;SDS011;46106;51.468;5.814;2023-06-22T10:14:24;18.95;;;16.60;;
60243;SDS011;46106;51.468;5.814;2023-06-22T10:16:51;21.10;;;16.83;;
60243;SDS011;46106;51.468;5.814;2023-06-22T10:19:17;20.38;;;16.70;;
60243;SDS011;46106;51.468;5.814;2023-06-22T10:21:43;20.10;;;16.48;;
60243;SDS011;46106;51.468;5.814;2023-06-22T10:24:08;23.02;;;16.75;;
60243;SDS011;46106;51.468;5.814;2023-06-22T10:26:34;22.65;;;17.40;;
60243;SDS011;46106;51.468;5.814;2023-06-22T10:29:01;20.40;;;17.00;;
60243;SDS011;46106;51.468;5.814;2023-06-22T10:31:27;23.67;;;17.10;;
60243;SDS011;46106;51.468;5.814;2023-06-22T10:33:53;20.05;;;17.50;;
60243;SDS011;46106;51.468;5.814;2023-06-22T10:36:18;22.65;;;17.38;;
60243;SDS011;46106;51.468;5.814;2023-06-22T10:38:44;25.60;;;19.08;;
60243;SDS011;46106;51.468;5.814;2023-06-22T10:41:10;23.73;;;19.95;;
60243;SDS011;46106;51.468;5.814;2023-06-22T10:43:36;24.98;;;19.45;;
60243;SDS011;46106;51.468;5.814;2023-06-22T10:46:01;27.42;;;21.10;;
60243;SDS011;46106;51.468;5.814;2023-06-22T10:48:26;33.10;;;23.60;;
60243;SDS011;46106;51.468;5.814;2023-06-22T10:50:52;42.58;;;26.95;;
60243;SDS011;46106;51.468;5.814;2023-06-22T10:53:18;58.80;;;32.55;;
60243;SDS011;46106;51.468;5.814;2023-06-22T10:55:44;63.35;;;36.80;;
60243;SDS011;46106;51.468;5.814;2023-06-22T10:58:09;54.75;;;34.42;;
60243;SDS011;46106;51.468;5.814;2023-06-22T11:00:34;61.33;;;37.70;;
60243;SDS011;46106;51.468;5.814;2023-06-22T11:03:00;52.72;;;36.30;;
60243;SDS011;46106;51.468;5.814;2023-06-22T11:05:25;55.13;;;38.17;;
60243;SDS011;46106;51.468;5.814;2023-06-22T11:07:51;69.65;;;41.45;;
60243;SDS011;46106;51.468;5.814;2023-06-22T11:10:16;58.33;;;37.60;;
60243;SDS011;46106;51.468;5.814;2023-06-22T11:12:42;62.40;;;39.03;;
60243;SDS011;46106;51.468;5.814;2023-06-22T11:15:08;57.75;;;38.75;;
60243;SDS011;46106;51.468;5.814;2023-06-22T11:17:34;61.35;;;40.75;;
60243;SDS011;46106;51.468;5.814;2023-06-22T11:20:00;61.97;;;37.90;;
60243;SDS011;46106;51.468;5.814;2023-06-22T11:22:26;68.10;;;42.17;;
60243;SDS011;46106;51.468;5.814;2023-06-22T11:24:51;70.78;;;43.97;;
60243;SDS011;46106;51.468;5.814;2023-06-22T11:27:17;89.82;;;46.47;;
60243;SDS011;46106;51.468;5.814;2023-06-22T11:29:42;65.18;;;41.60;;
60243;SDS011;46106;51.468;5.814;2023-06-22T11:32:08;63.65;;;40.35;;
60243;SDS011;46106;51.468;5.814;2023-06-22T11:34:34;69.85;;;42.83;;
60243;SDS011;46106;51.468;5.814;2023-06-22T11:36:59;69.60;;;41.60;;
60243;SDS011;46106;51.468;5.814;2023-06-22T11:39:25;73.22;;;43.17;;
60243;SDS011;46106;51.468;5.814;2023-06-22T11:41:50;63.40;;;39.92;;
60243;SDS011;46106;51.468;5.814;2023-06-22T11:44:15;70.53;;;44.38;;
60243;SDS011;46106;51.468;5.814;2023-06-22T11:46:41;66.50;;;43.45;;
60243;SDS011;46106;51.468;5.814;2023-06-22T11:49:07;77.80;;;46.35;;
60243;SDS011;46106;51.468;5.814;2023-06-22T11:51:33;72.65;;;44.08;;
60243;SDS011;46106;51.468;5.814;2023-06-22T11:53:58;55.92;;;38.58;;
60243;SDS011;46106;51.468;5.814;2023-06-22T11:56:24;75.10;;;43.83;;
60243;SDS011;46106;51.468;5.814;2023-06-22T11:58:49;62.90;;;41.35;;
60243;SDS011;46106;51.468;5.814;2023-06-22T12:01:15;54.30;;;37.72;;
60243;SDS011;46106;51.468;5.814;2023-06-22T12:03:40;61.90;;;39.53;;
60243;SDS011;46106;51.468;5.814;2023-06-22T12:06:08;66.55;;;42.40;;
60243;SDS011;46106;51.468;5.814;2023-06-22T12:08:34;73.03;;;44.85;;
60243;SDS011;46106;51.468;5.814;2023-06-22T12:10:59;62.15;;;39.47;;
60243;SDS011;46106;51.468;5.814;2023-06-22T12:13:24;66.13;;;41.17;;
60243;SDS011;46106;51.468;5.814;2023-06-22T12:15:50;58.30;;;38.60;;
60243;SDS011;46106;51.468;5.814;2023-06-22T12:18:17;60.90;;;40.60;;
60243;SDS011;46106;51.468;5.814;2023-06-22T12:20:45;61.05;;;39.72;;
60243;SDS011;46106;51.468;5.814;2023-06-22T12:23:11;57.28;;;37.65;;
60243;SDS011;46106;51.468;5.814;2023-06-22T12:25:36;57.05;;;38.35;;
60243;SDS011;46106;51.468;5.814;2023-06-22T12:28:02;59.40;;;41.47;;
60243;SDS011;46106;51.468;5.814;2023-06-22T12:30:27;57.47;;;37.88;;
60243;SDS011;46106;51.468;5.814;2023-06-22T12:32:53;52.33;;;36.03;;
60243;SDS011;46106;51.468;5.814;2023-06-22T12:35:18;45.00;;;33.78;;
60243;SDS011;46106;51.468;5.814;2023-06-22T12:37:44;45.88;;;34.00;;
60243;SDS011;46106;51.468;5.814;2023-06-22T12:40:09;43.17;;;32.28;;
60243;SDS011;46106;51.468;5.814;2023-06-22T12:42:35;49.03;;;36.08;;
60243;SDS011;46106;51.468;5.814;2023-06-22T12:45:01;51.80;;;34.95;;
60243;SDS011;46106;51.468;5.814;2023-06-22T12:47:26;44.90;;;32.00;;
60243;SDS011;46106;51.468;5.814;2023-06-22T12:49:52;39.58;;;30.52;;
60243;SDS011;46106;51.468;5.814;2023-06-22T12:52:18;50.10;;;31.75;;
60243;SDS011;46106;51.468;5.814;2023-06-22T12:54:43;41.58;;;31.23;;
60243;SDS011;46106;51.468;5.814;2023-06-22T12:57:08;45.53;;;31.60;;
60243;SDS011;46106;51.468;5.814;2023-06-22T12:59:34;47.10;;;32.05;;
60243;SDS011;46106;51.468;5.814;2023-06-22T13:01:59;42.35;;;30.17;;
60243;SDS011;46106;51.468;5.814;2023-06-22T13:04:25;37.65;;;29.77;;
60243;SDS011;46106;51.468;5.814;2023-06-22T13:06:50;42.03;;;29.70;;
60243;SDS011;46106;51.468;5.814;2023-06-22T13:09:17;45.88;;;32.92;;
60243;SDS011;46106;51.468;5.814;2023-06-22T13:11:43;34.33;;;28.35;;
60243;SDS011;46106;51.468;5.814;2023-06-22T13:14:09;43.40;;;30.55;;
60243;SDS011;46106;51.468;5.814;2023-06-22T13:16:35;39.70;;;28.88;;
60243;SDS011;46106;51.468;5.814;2023-06-22T13:19:01;42.78;;;30.15;;
60243;SDS011;46106;51.468;5.814;2023-06-22T13:21:26;48.10;;;33.13;;
60243;SDS011;46106;51.468;5.814;2023-06-22T13:23:52;48.10;;;33.63;;
60243;SDS011;46106;51.468;5.814;2023-06-22T13:26:17;45.55;;;32.55;;
60243;SDS011;46106;51.468;5.814;2023-06-22T13:28:43;44.60;;;33.03;;
60243;SDS011;46106;51.468;5.814;2023-06-22T13:31:09;50.53;;;35.35;;
60243;SDS011;46106;51.468;5.814;2023-06-22T13:33:34;54.95;;;39.60;;
60243;SDS011;46106;51.468;5.814;2023-06-22T13:36:00;53.42;;;36.90;;
60243;SDS011;46106;51.468;5.814;2023-06-22T13:38:25;49.97;;;34.97;;
60243;SDS011;46106;51.468;5.814;2023-06-22T13:40:50;54.70;;;36.20;;
60243;SDS011;46106;51.468;5.814;2023-06-22T13:43:16;51.95;;;37.85;;
60243;SDS011;46106;51.468;5.814;2023-06-22T13:45:42;54.10;;;36.78;;
60243;SDS011;46106;51.468;5.814;2023-06-22T13:48:08;53.30;;;37.42;;
60243;SDS011;46106;51.468;5.814;2023-06-22T13:50:34;45.50;;;33.60;;
60243;SDS011;46106;51.468;5.814;2023-06-22T13:52:59;47.03;;;34.47;;
60243;SDS011;46106;51.468;5.814;2023-06-22T13:55:25;51.83;;;36.03;;
60243;SDS011;46106;51.468;5.814;2023-06-22T13:57:51;46.83;;;34.80;;
60243;SDS011;46106;51.468;5.814;2023-06-22T14:00:17;46.08;;;33.35;;
60243;SDS011;46106;51.468;5.814;2023-06-22T14:02:43;52.28;;;34.78;;
60243;SDS011;46106;51.468;5.814;2023-06-22T14:05:08;45.63;;;33.33;;
60243;SDS011;46106;51.468;5.814;2023-06-22T14:07:34;52.85;;;37.95;;
60243;SDS011;46106;51.468;5.814;2023-06-22T14:09:59;54.08;;;37.65;;
60243;SDS011;46106;51.468;5.814;2023-06-22T14:12:25;46.60;;;34.88;;
60243;SDS011;46106;51.468;5.814;2023-06-22T14:14:51;47.28;;;35.15;;
60243;SDS011;46106;51.468;5.814;2023-06-22T14:17:17;56.13;;;38.30;;
60243;SDS011;46106;51.468;5.814;2023-06-22T14:19:42;57.10;;;38.88;;
60243;SDS011;46106;51.468;5.814;2023-06-22T14:22:08;56.50;;;39.63;;
60243;SDS011;46106;51.468;5.814;2023-06-22T14:24:33;52.95;;;39.03;;
60243;SDS011;46106;51.468;5.814;2023-06-22T14:26:59;55.08;;;39.00;;
60243;SDS011;46106;51.468;5.814;2023-06-22T14:29:27;57.38;;;40.03;;